createdAt,value
2022-12-03T00:01:49.279Z,82.05
2022-12-03T00:05:49.526Z,81.78
2022-12-03T00:09:48.720Z,82.06
2022-12-03T00:13:48.765Z,81.21
2022-12-03T00:17:48.160Z,82.01
2022-12-03T00:21:47.900Z,82.15
2022-12-03T00:25:47.638Z,82.45
2022-12-03T00:29:47.741Z,82.44
2022-12-03T00:33:47.642Z,82.06
2022-12-03T00:37:47.187Z,81.61
2022-12-03T00:41:46.479Z,81.17
2022-12-03T00:45:46.086Z,80.40
2022-12-03T00:49:45.064Z,80.11
2022-12-03T00:53:44.047Z,80.32
2022-12-03T00:57:43.026Z,80.24
2022-12-03T01:01:46.002Z,80.92
2022-12-03T01:05:45.421Z,79.96
2022-12-03T01:09:44.968Z,79.53
2022-12-03T01:13:43.768Z,79.33
2022-12-03T01:17:42.948Z,80.04
2022-12-03T01:21:47.630Z,79.94
2022-12-03T01:25:47.004Z,80.21
2022-12-03T01:29:45.747Z,80.39
2022-12-03T01:33:45.038Z,80.78
2022-12-03T01:37:44.252Z,80.93
2022-12-03T01:41:58.928Z,80.69
2022-12-03T01:45:57.986Z,80.38
2022-12-03T01:50:03.065Z,80.56
2022-12-03T01:54:03.423Z,80.52
2022-12-03T01:58:02.717Z,80.59
2022-12-03T02:02:13.427Z,80.56
2022-12-03T02:06:19.452Z,80.63
2022-12-03T02:10:25.661Z,81.15
2022-12-03T02:18:15.621Z,81.51
2022-12-03T02:21:51.663Z,82.12
2022-12-03T02:25:50.802Z,82.35
2022-12-03T02:29:52.002Z,82.22
2022-12-03T02:34:38.258Z,82.17
2022-12-03T02:37:47.695Z,82.13
2022-12-03T02:42:10.621Z,82.06
2022-12-03T02:46:14.181Z,81.86
2022-12-03T02:49:54.754Z,82.09
2022-12-03T02:54:00.202Z,81.63
2022-12-03T02:58:05.104Z,81.36
2022-12-03T03:02:12.164Z,81.38
2022-12-03T03:05:45.478Z,81.14
2022-12-03T03:09:28.920Z,80.93
2022-12-03T03:13:18.552Z,80.97
2022-12-03T03:24:06.364Z,81.47
2022-12-03T03:31:59.541Z,81.07
2022-12-03T03:35:26.745Z,81.04
2022-12-03T03:39:07.145Z,81.32
2022-12-03T03:51:25.610Z,80.72
2022-12-03T03:55:46.831Z,80.96
2022-12-03T03:59:05.408Z,80.24
2022-12-03T04:02:49.290Z,79.88
2022-12-03T04:06:23.950Z,80.66
2022-12-03T04:13:49.409Z,80.26
2022-12-03T04:22:44.963Z,79.53
2022-12-03T04:44:47.572Z,79.87
2022-12-03T04:48:49.604Z,80.01
2022-12-03T04:52:08.124Z,80.20
2022-12-03T04:56:20.103Z,80.44
2022-12-03T05:03:36.557Z,80.79
2022-12-03T05:07:39.227Z,80.44
2022-12-03T05:11:56.106Z,80.79
2022-12-03T05:15:39.891Z,81.00
2022-12-03T05:19:11.923Z,80.84
2022-12-03T05:22:57.052Z,80.37
2022-12-03T05:31:08.179Z,81.24
2022-12-03T05:34:19.128Z,81.27
2022-12-03T05:37:55.352Z,81.48
2022-12-03T05:42:13.187Z,80.89
2022-12-03T05:46:26.543Z,80.99
2022-12-03T05:50:28.352Z,81.26
2022-12-03T05:54:27.028Z,81.92
2022-12-03T05:58:26.291Z,82.27
2022-12-03T06:02:25.455Z,82.93
2022-12-03T06:06:25.223Z,83.73
2022-12-03T06:10:27.149Z,83.59
2022-12-03T06:14:26.827Z,83.95
2022-12-03T06:18:26.031Z,83.48
2022-12-03T06:22:38.686Z,83.07
2022-12-03T06:26:37.406Z,83.50
2022-12-03T06:30:37.179Z,83.84
2022-12-03T06:34:37.026Z,84.08
2022-12-03T06:38:36.009Z,84.52
2022-12-03T06:42:35.567Z,84.14
2022-12-03T06:46:34.978Z,84.71
2022-12-03T06:50:34.162Z,85.33
2022-12-03T06:54:33.374Z,85.24
2022-12-03T06:58:46.819Z,85.69
2022-12-03T07:02:48.290Z,85.86
2022-12-03T07:06:23.888Z,86.17
2022-12-03T07:10:23.588Z,87.00
2022-12-03T07:14:23.141Z,87.81
2022-12-03T07:18:23.161Z,87.09
2022-12-03T07:22:22.979Z,87.14
2022-12-03T07:26:22.708Z,87.35
2022-12-03T07:30:23.904Z,87.82
2022-12-03T07:34:23.506Z,87.90
2022-12-03T07:38:22.867Z,88.02
2022-12-03T07:42:22.007Z,87.77
2022-12-03T07:46:21.151Z,87.70
2022-12-03T07:50:21.060Z,87.97
2022-12-03T07:54:22.370Z,87.64
2022-12-03T07:58:21.486Z,87.40
2022-12-03T08:02:34.870Z,87.13
2022-12-03T08:06:35.226Z,86.94
2022-12-03T08:10:34.934Z,87.14
2022-12-03T08:14:36.249Z,87.07
2022-12-03T08:18:35.553Z,87.60
2022-12-03T08:22:34.808Z,87.63
2022-12-03T08:26:34.575Z,87.59
2022-12-03T08:30:34.361Z,87.91
2022-12-03T08:34:40.674Z,88.08
2022-12-03T08:38:40.609Z,88.05
2022-12-03T08:42:43.096Z,87.72
2022-12-03T08:46:42.093Z,87.41
2022-12-03T08:50:42.893Z,87.37
2022-12-03T08:54:43.687Z,87.14
2022-12-03T08:58:44.759Z,86.91
2022-12-03T09:02:48.826Z,86.73
2022-12-03T09:06:48.087Z,86.62
2022-12-03T09:10:47.575Z,86.26
2022-12-03T09:14:47.299Z,86.07
2022-12-03T09:18:48.920Z,86.18
2022-12-03T09:22:47.833Z,85.88
2022-12-03T09:26:47.241Z,85.54
2022-12-03T09:30:46.628Z,85.56
2022-12-03T09:34:46.707Z,85.37
2022-12-03T09:38:47.966Z,85.27
2022-12-03T09:42:48.130Z,85.44
2022-12-03T09:46:48.855Z,85.35
2022-12-03T09:50:49.402Z,85.27
2022-12-03T09:54:48.676Z,85.53
2022-12-03T09:59:02.869Z,85.38
2022-12-03T10:03:19.194Z,85.80
2022-12-03T10:07:18.353Z,86.01
2022-12-03T10:11:20.067Z,86.31
2022-12-03T10:15:22.008Z,86.44
2022-12-03T10:19:31.882Z,86.96
2022-12-03T10:23:32.068Z,87.10
2022-12-03T10:27:31.008Z,87.13
2022-12-03T10:31:37.044Z,87.25
2022-12-03T10:35:39.403Z,87.34
2022-12-03T10:40:01.933Z,87.25
2022-12-03T10:44:26.432Z,87.15
2022-12-03T10:48:27.578Z,87.27
2022-12-03T10:52:27.293Z,86.98
2022-12-03T10:56:27.698Z,87.09
2022-12-03T11:00:27.045Z,86.90
2022-12-03T11:04:34.307Z,87.07
2022-12-03T11:08:37.862Z,86.95
2022-12-03T11:12:37.842Z,86.75
2022-12-03T11:16:40.154Z,86.64
2022-12-03T11:20:45.873Z,86.57
2022-12-03T11:24:45.342Z,86.40
2022-12-03T11:28:48.010Z,86.43
2022-12-03T11:32:47.455Z,86.42
2022-12-03T11:37:11.727Z,86.41
2022-12-03T11:41:19.650Z,86.59
2022-12-03T11:45:37.542Z,86.51
2022-12-03T11:49:39.984Z,86.29
2022-12-03T11:53:40.638Z,86.30
2022-12-03T11:57:40.594Z,86.45
2022-12-03T12:01:42.167Z,86.79
2022-12-03T12:06:08.502Z,87.11
2022-12-03T12:10:41.788Z,87.46
2022-12-03T12:14:42.554Z,87.52
2022-12-03T12:18:45.903Z,87.99
2022-12-03T12:22:44.987Z,88.21
2022-12-03T12:26:51.654Z,88.08
2022-12-03T12:30:50.400Z,88.56
2022-12-03T12:34:53.494Z,88.76
2022-12-03T12:38:52.800Z,88.70
2022-12-03T12:42:58.129Z,88.99
2022-12-03T12:47:12.978Z,89.11
2022-12-03T12:51:13.866Z,89.16
2022-12-03T12:55:15.102Z,89.36
2022-12-03T12:59:20.705Z,89.41
2022-12-03T13:03:22.682Z,89.43
2022-12-03T13:07:22.673Z,89.69
2022-12-03T13:11:24.960Z,89.85
2022-12-03T13:15:47.454Z,89.75
2022-12-03T13:20:01.972Z,89.93
2022-12-03T13:24:31.308Z,90.57
2022-12-03T13:28:31.435Z,92.53
2022-12-03T13:32:37.231Z,91.71
2022-12-03T13:36:43.050Z,90.12
2022-12-03T13:40:42.615Z,88.74
2022-12-03T13:44:48.122Z,87.28
2022-12-03T13:48:47.940Z,87.28
2022-12-03T13:52:47.843Z,87.50
2022-12-03T13:56:48.017Z,87.91
2022-12-03T14:00:47.375Z,88.03
2022-12-03T14:04:46.675Z,88.26
2022-12-03T14:08:45.690Z,88.53
2022-12-03T14:12:44.953Z,88.50
2022-12-03T14:16:44.920Z,88.67
2022-12-03T14:20:45.592Z,89.00
2022-12-03T14:24:44.673Z,89.21
2022-12-03T14:28:44.602Z,89.07
2022-12-03T14:32:45.990Z,89.44
2022-12-03T14:36:21.891Z,89.95
2022-12-03T14:40:21.973Z,89.86
2022-12-03T14:44:24.433Z,90.34
2022-12-03T14:48:23.663Z,90.54
2022-12-03T14:52:23.242Z,90.24
2022-12-03T14:56:36.030Z,90.42
2022-12-03T15:00:35.367Z,90.10
2022-12-03T15:04:36.424Z,89.94
2022-12-03T15:08:12.220Z,90.22
2022-12-03T15:12:11.428Z,93.41
2022-12-03T15:16:10.495Z,91.27
2022-12-03T15:20:24.011Z,89.26
2022-12-03T15:24:37.250Z,89.05
2022-12-03T15:28:36.609Z,89.15
2022-12-03T15:32:36.405Z,89.34
2022-12-03T15:36:35.577Z,89.53
2022-12-03T15:40:35.216Z,89.83
2022-12-03T15:44:34.318Z,90.01
2022-12-03T15:48:34.362Z,89.81
2022-12-03T15:52:34.008Z,89.92
2022-12-03T15:56:37.747Z,90.10
2022-12-03T16:00:36.923Z,90.10
2022-12-03T16:04:50.311Z,90.01
2022-12-03T16:08:50.931Z,90.13
2022-12-03T16:12:28.590Z,90.33
2022-12-03T16:16:27.517Z,90.10
2022-12-03T16:20:27.787Z,90.07
2022-12-03T16:24:27.662Z,90.10
2022-12-03T16:28:26.972Z,90.05
2022-12-03T16:32:26.682Z,89.90
2022-12-03T16:36:26.107Z,89.40
2022-12-03T16:40:25.632Z,89.26
2022-12-03T16:44:32.974Z,89.34
2022-12-03T16:48:32.242Z,89.35
2022-12-03T16:52:31.530Z,88.63
2022-12-03T16:56:30.670Z,87.77
2022-12-03T17:00:30.069Z,87.91
2022-12-03T17:04:29.281Z,88.04
2022-12-03T17:08:28.575Z,87.59
2022-12-03T17:12:37.466Z,87.13
2022-12-03T17:16:47.770Z,87.05
2022-12-03T17:20:47.223Z,86.84
2022-12-03T17:24:47.011Z,86.76
2022-12-03T17:28:46.693Z,86.38
2022-12-03T17:32:46.078Z,86.20
2022-12-03T17:36:44.989Z,86.49
2022-12-03T17:40:43.878Z,86.36
2022-12-03T17:44:42.670Z,86.48
2022-12-03T17:48:42.847Z,86.49
2022-12-03T17:52:41.571Z,86.39
2022-12-03T17:56:43.692Z,86.40
2022-12-03T18:00:42.590Z,86.11
2022-12-03T18:04:42.318Z,85.93
2022-12-03T18:08:41.492Z,85.39
2022-12-03T18:12:59.812Z,85.52
2022-12-03T18:17:00.650Z,85.25
2022-12-03T18:21:04.499Z,85.00
2022-12-03T18:25:05.225Z,85.09
2022-12-03T18:29:04.714Z,84.72
2022-12-03T18:33:04.307Z,84.58
2022-12-03T18:37:03.578Z,84.67
2022-12-03T18:41:02.853Z,84.68
2022-12-03T18:45:02.417Z,84.60
2022-12-03T18:49:01.461Z,84.26
2022-12-03T18:53:03.090Z,84.28
2022-12-03T18:56:38.469Z,84.30
2022-12-03T19:00:38.966Z,84.38
2022-12-03T19:04:37.869Z,84.71
2022-12-03T19:08:37.076Z,84.31
2022-12-03T19:12:37.578Z,84.49
2022-12-03T19:16:39.316Z,84.08
2022-12-03T19:20:42.505Z,83.94
2022-12-03T19:24:42.172Z,84.32
2022-12-03T19:28:42.448Z,84.75
2022-12-03T19:32:42.088Z,84.26
2022-12-03T19:36:42.270Z,83.96
2022-12-03T19:40:42.212Z,84.38
2022-12-03T19:44:41.403Z,84.60
2022-12-03T19:48:41.865Z,84.59
2022-12-03T19:52:41.550Z,84.82
2022-12-03T19:56:41.208Z,85.20
2022-12-03T20:00:41.224Z,84.86
2022-12-03T20:04:41.524Z,85.22
2022-12-03T20:08:41.986Z,85.73
2022-12-03T20:12:41.422Z,86.36
2022-12-03T20:16:42.069Z,86.73
2022-12-03T20:20:41.394Z,86.50
2022-12-03T20:24:41.323Z,86.90
2022-12-03T20:28:42.229Z,86.73
2022-12-03T20:32:18.729Z,86.26
2022-12-03T20:36:32.890Z,86.07
2022-12-03T20:40:36.337Z,86.30
2022-12-03T20:44:37.824Z,86.09
2022-12-03T20:48:38.131Z,86.06
2022-12-03T20:52:37.469Z,85.90
2022-12-03T20:56:42.393Z,85.85
2022-12-03T21:00:41.796Z,85.68
2022-12-03T21:04:41.033Z,85.86
2022-12-03T21:08:42.853Z,85.57
2022-12-03T21:12:42.849Z,86.06
2022-12-03T21:17:07.072Z,86.12
2022-12-03T21:21:07.105Z,86.13
2022-12-03T21:25:07.004Z,85.96
2022-12-03T21:29:06.570Z,85.81
2022-12-03T21:33:06.805Z,85.56
2022-12-03T21:37:06.121Z,85.66
2022-12-03T21:41:24.515Z,85.68
2022-12-03T21:44:43.277Z,85.83
2022-12-03T21:48:43.727Z,85.78
2022-12-03T21:52:43.085Z,85.78
2022-12-03T21:56:43.238Z,86.02
2022-12-03T22:00:56.506Z,86.33
2022-12-03T22:04:56.205Z,86.23
2022-12-03T22:08:56.104Z,85.77
2022-12-03T22:12:55.549Z,86.00
2022-12-03T22:16:55.030Z,85.87
2022-12-03T22:20:54.742Z,85.84
2022-12-03T22:25:12.713Z,85.87
2022-12-03T22:28:33.036Z,85.52
2022-12-03T22:32:32.495Z,85.91
2022-12-03T22:36:32.202Z,86.04
2022-12-03T22:40:31.743Z,85.94
2022-12-03T22:44:31.565Z,86.02
2022-12-03T22:48:33.897Z,86.03
2022-12-03T22:52:34.029Z,86.32
2022-12-03T22:56:34.043Z,86.32
2022-12-03T23:00:36.993Z,86.64
2022-12-03T23:04:36.846Z,86.51
2022-12-03T23:08:36.491Z,86.49
2022-12-03T23:12:36.944Z,86.54
2022-12-03T23:16:36.790Z,86.63
2022-12-03T23:20:48.016Z,87.03
2022-12-03T23:24:47.352Z,87.08
2022-12-03T23:28:47.306Z,87.03
2022-12-03T23:32:46.273Z,87.10
2022-12-03T23:36:46.128Z,87.20
2022-12-03T23:40:48.197Z,87.38
2022-12-03T23:44:48.115Z,87.55
2022-12-03T23:48:47.725Z,87.51
2022-12-03T23:52:47.269Z,87.42
2022-12-03T23:56:46.582Z,87.35
